createdAt,value
2018-10-21T00:01:40.285Z,8.73
2018-10-21T00:04:07.917Z,13.47
2018-10-21T00:06:35.480Z,8.17
2018-10-21T00:09:04.456Z,10.77
2018-10-21T00:11:32.203Z,11.07
2018-10-21T00:13:59.744Z,7.30
2018-10-21T00:16:27.321Z,9.83
2018-10-21T00:18:54.780Z,10.83
2018-10-21T00:21:22.286Z,9.53
2018-10-21T00:23:49.780Z,10.87
2018-10-21T00:26:17.252Z,10.57
2018-10-21T00:28:44.790Z,11.90
2018-10-21T00:31:12.324Z,13.57
2018-10-21T00:33:39.772Z,10.40
2018-10-21T00:36:07.252Z,11.93
2018-10-21T00:38:34.688Z,14.87
2018-10-21T00:41:02.397Z,15.47
2018-10-21T00:43:29.864Z,12.03
2018-10-21T00:45:57.459Z,12.37
2018-10-21T00:48:24.996Z,7.90
2018-10-21T00:50:52.544Z,6.87
2018-10-21T00:53:20.098Z,11.57
2018-10-21T00:55:47.625Z,13.50
2018-10-21T00:58:15.059Z,10.87
2018-10-21T01:00:42.592Z,10.90
2018-10-21T01:03:10.313Z,8.70
2018-10-21T01:05:38.000Z,6.10
2018-10-21T01:08:05.539Z,9.07
2018-10-21T01:10:32.985Z,9.23
2018-10-21T01:13:00.430Z,7.43
2018-10-21T01:15:27.998Z,10.33
2018-10-21T01:17:55.528Z,9.30
2018-10-21T01:20:23.005Z,12.60
2018-10-21T01:22:50.504Z,11.43
2018-10-21T01:25:18.042Z,6.57
2018-10-21T01:27:45.536Z,11.23
2018-10-21T01:30:13.187Z,17.10
2018-10-21T01:32:40.676Z,13.77
2018-10-21T01:35:08.660Z,9.90
2018-10-21T01:37:36.453Z,9.73
2018-10-21T01:40:36.045Z,8.43
2018-10-21T01:43:04.025Z,17.80
2018-10-21T01:45:31.576Z,13.97
2018-10-21T01:48:00.871Z,10.23
2018-10-21T01:50:28.550Z,14.57
2018-10-21T01:52:57.263Z,13.87
2018-10-21T01:55:25.206Z,11.33
2018-10-21T01:57:53.177Z,16.20
2018-10-21T02:00:20.807Z,12.43
2018-10-21T02:02:48.263Z,14.03
2018-10-21T02:05:15.746Z,15.63
2018-10-21T02:07:43.268Z,12.00
2018-10-21T02:10:10.811Z,11.23
2018-10-21T02:12:38.467Z,9.93
2018-10-21T02:15:06.727Z,13.37
2018-10-21T02:17:36.394Z,14.90
2018-10-21T02:20:04.080Z,14.67
2018-10-21T02:22:31.553Z,11.07
2018-10-21T02:24:59.119Z,10.47
2018-10-21T02:27:26.659Z,12.67
2018-10-21T02:29:54.258Z,12.77
2018-10-21T02:32:21.796Z,12.43
2018-10-21T02:34:49.379Z,11.50
2018-10-21T02:37:16.867Z,10.57
2018-10-21T02:39:44.451Z,13.63
2018-10-21T02:42:11.979Z,9.37
2018-10-21T02:44:39.711Z,9.23
2018-10-21T02:47:07.180Z,14.90
2018-10-21T02:49:34.688Z,7.33
2018-10-21T02:52:06.201Z,13.40
2018-10-21T02:54:34.348Z,11.10
2018-10-21T02:57:02.153Z,12.47
2018-10-21T02:59:29.556Z,15.07
2018-10-21T03:01:57.206Z,16.03
2018-10-21T03:04:24.735Z,9.53
2018-10-21T03:06:52.356Z,11.80
2018-10-21T03:09:20.069Z,8.67
2018-10-21T03:11:47.525Z,13.23
2018-10-21T03:14:15.088Z,12.17
2018-10-21T03:16:42.528Z,9.87
2018-10-21T03:19:10.020Z,16.53
2018-10-21T03:21:37.587Z,11.40
2018-10-21T03:24:05.123Z,14.90
2018-10-21T03:26:32.678Z,11.60
2018-10-21T03:29:00.308Z,9.90
2018-10-21T03:31:27.909Z,14.10
2018-10-21T03:33:55.614Z,14.67
2018-10-21T03:36:23.112Z,11.90
2018-10-21T03:38:50.611Z,10.43
2018-10-21T03:41:18.132Z,12.63
2018-10-21T03:43:45.615Z,13.40
2018-10-21T03:46:14.274Z,11.83
2018-10-21T03:48:41.803Z,11.80
2018-10-21T03:51:09.461Z,11.77
2018-10-21T03:53:36.903Z,18.30
2018-10-21T03:56:04.391Z,13.07
2018-10-21T03:58:31.884Z,14.37
2018-10-21T04:00:59.425Z,14.80
2018-10-21T04:03:26.998Z,16.37
2018-10-21T04:05:54.476Z,15.93
2018-10-21T04:08:22.129Z,13.63
2018-10-21T04:10:49.620Z,13.73
2018-10-21T04:13:17.141Z,16.00
2018-10-21T04:15:44.599Z,14.70
2018-10-21T04:18:12.053Z,15.70
2018-10-21T04:20:39.529Z,15.03
2018-10-21T04:23:07.123Z,22.10
2018-10-21T04:25:35.929Z,18.27
2018-10-21T04:28:04.051Z,18.70
2018-10-21T04:30:33.498Z,20.37
2018-10-21T04:34:05.007Z,17.10
2018-10-21T04:36:33.470Z,19.37
2018-10-21T04:40:21.852Z,17.60
2018-10-21T04:42:50.076Z,15.37
2018-10-21T04:45:19.725Z,18.00
2018-10-21T04:47:47.276Z,16.93
2018-10-21T04:50:14.755Z,12.97
2018-10-21T04:52:42.245Z,13.00
2018-10-21T04:55:17.500Z,14.27
2018-10-21T04:57:46.262Z,14.37
2018-10-21T05:00:16.925Z,17.73
2018-10-21T05:02:44.545Z,14.43
2018-10-21T05:05:13.174Z,16.03
2018-10-21T05:07:40.968Z,17.03
2018-10-21T05:10:23.880Z,13.63
2018-10-21T05:12:51.348Z,15.30
2018-10-21T05:15:19.288Z,13.80
2018-10-21T05:17:46.686Z,17.53
2018-10-21T05:20:14.347Z,22.73
2018-10-21T05:22:42.006Z,16.90
2018-10-21T05:25:10.352Z,14.50
2018-10-21T05:27:37.963Z,23.30
2018-10-21T05:30:06.233Z,31.20
2018-10-21T05:32:33.809Z,24.33
2018-10-21T05:35:01.768Z,22.83
2018-10-21T05:37:29.488Z,25.73
2018-10-21T05:39:56.950Z,26.67
2018-10-21T05:42:24.495Z,15.33
2018-10-21T05:44:51.955Z,19.60
2018-10-21T05:47:19.514Z,24.53
2018-10-21T05:49:46.929Z,21.17
2018-10-21T05:52:14.555Z,24.53
2018-10-21T05:54:42.968Z,22.80
2018-10-21T05:57:10.459Z,23.03
2018-10-21T05:59:38.149Z,19.80
2018-10-21T06:02:05.687Z,23.03
2018-10-21T06:04:33.293Z,15.47
2018-10-21T06:07:00.763Z,17.40
2018-10-21T06:09:28.235Z,22.20
2018-10-21T06:11:55.708Z,20.20
2018-10-21T06:14:23.170Z,16.43
2018-10-21T06:16:59.434Z,21.50
2018-10-21T06:19:31.628Z,22.43
2018-10-21T06:21:59.210Z,15.90
2018-10-21T06:24:26.931Z,17.93
2018-10-21T06:26:54.675Z,16.03
2018-10-21T06:29:22.212Z,16.57
2018-10-21T06:31:49.712Z,16.47
2018-10-21T06:34:17.211Z,17.80
2018-10-21T06:36:44.853Z,18.80
2018-10-21T06:39:12.453Z,17.40
2018-10-21T06:41:39.919Z,20.37
2018-10-21T06:44:07.433Z,19.77
2018-10-21T06:46:35.007Z,16.63
2018-10-21T06:49:02.638Z,16.00
2018-10-21T06:51:30.231Z,16.50
2018-10-21T06:53:57.790Z,16.60
2018-10-21T06:56:25.421Z,15.23
2018-10-21T06:58:52.783Z,14.60
2018-10-21T07:01:20.395Z,17.90
2018-10-21T07:03:48.117Z,17.30
2018-10-21T07:06:20.912Z,17.03
2018-10-21T07:08:49.472Z,20.57
2018-10-21T07:11:17.011Z,20.10
2018-10-21T07:13:45.499Z,16.53
2018-10-21T07:16:13.415Z,22.10
2018-10-21T07:18:42.095Z,35.90
2018-10-21T07:21:09.688Z,72.17
2018-10-21T07:23:37.612Z,98.07
2018-10-21T07:26:06.181Z,68.73
2018-10-21T07:28:33.842Z,49.63
2018-10-21T07:31:01.320Z,30.00
2018-10-21T07:33:28.856Z,22.50
2018-10-21T07:35:56.820Z,23.07
2018-10-21T07:38:24.359Z,25.60
2018-10-21T07:40:51.950Z,20.17
2018-10-21T07:43:19.754Z,18.63
2018-10-21T07:45:47.219Z,22.63
2018-10-21T07:48:16.752Z,20.73
2018-10-21T07:50:44.857Z,22.03
2018-10-21T07:53:12.834Z,19.93
2018-10-21T07:55:40.965Z,21.10
2018-10-21T07:58:09.076Z,20.60
2018-10-21T08:00:37.132Z,17.73
2018-10-21T08:03:07.947Z,21.03
2018-10-21T08:05:47.120Z,23.80
2018-10-21T08:08:18.767Z,21.40
2018-10-21T08:10:46.392Z,27.43
2018-10-21T08:13:15.323Z,19.73
2018-10-21T08:15:43.401Z,31.53
2018-10-21T08:18:11.664Z,23.07
2018-10-21T08:20:39.947Z,20.43
2018-10-21T08:23:08.803Z,19.77
2018-10-21T08:25:36.465Z,24.30
2018-10-21T08:28:03.992Z,18.77
2018-10-21T08:30:33.092Z,21.23
2018-10-21T08:33:00.583Z,18.43
2018-10-21T08:35:29.017Z,19.00
2018-10-21T08:37:56.507Z,16.97
2018-10-21T08:40:23.975Z,16.33
2018-10-21T08:42:52.464Z,20.63
2018-10-21T08:45:20.596Z,22.10
2018-10-21T08:47:48.561Z,19.70
2018-10-21T08:50:16.013Z,13.47
2018-10-21T08:52:45.121Z,14.27
2018-10-21T08:55:12.942Z,15.87
2018-10-21T08:57:41.835Z,14.73
2018-10-21T09:00:14.535Z,15.40
2018-10-21T09:02:43.719Z,11.40
2018-10-21T09:05:13.965Z,14.80
2018-10-21T09:07:42.535Z,11.70
2018-10-21T09:10:12.175Z,14.10
2018-10-21T09:12:40.216Z,13.37
2018-10-21T09:15:10.103Z,13.93
2018-10-21T09:17:38.071Z,15.60
2018-10-21T09:20:07.696Z,11.10
2018-10-21T09:22:35.357Z,11.60
2018-10-21T09:25:03.125Z,11.63
2018-10-21T09:27:30.582Z,12.57
2018-10-21T09:30:02.177Z,13.67
2018-10-21T09:32:29.728Z,10.57
2018-10-21T09:34:57.256Z,15.43
2018-10-21T09:37:24.867Z,11.60
2018-10-21T09:39:52.355Z,15.53
2018-10-21T09:42:19.891Z,13.73
2018-10-21T09:44:47.353Z,11.70
2018-10-21T09:47:14.997Z,11.57
2018-10-21T09:49:42.526Z,10.10
2018-10-21T09:52:10.066Z,9.60
2018-10-21T09:54:37.656Z,12.67
2018-10-21T09:57:05.159Z,16.87
2018-10-21T09:59:36.096Z,9.80
2018-10-21T10:02:09.257Z,20.90
2018-10-21T10:04:36.947Z,9.00
2018-10-21T10:07:04.534Z,12.70
2018-10-21T10:09:32.433Z,7.62
2018-10-21T10:11:59.928Z,18.17
2018-10-21T10:14:27.407Z,10.77
2018-10-21T10:16:55.040Z,6.33
2018-10-21T10:19:22.608Z,11.97
2018-10-21T10:21:50.134Z,12.00
2018-10-21T10:24:17.544Z,8.10
2018-10-21T10:26:45.067Z,5.28
2018-10-21T10:29:13.543Z,7.35
2018-10-21T10:31:41.239Z,7.83
2018-10-21T10:34:08.811Z,5.15
2018-10-21T10:36:36.161Z,5.28
2018-10-21T10:39:05.804Z,7.78
2018-10-21T10:41:33.359Z,9.63
2018-10-21T10:44:01.304Z,26.65
2018-10-21T10:46:28.847Z,8.18
2018-10-21T10:48:56.443Z,9.70
2018-10-21T10:51:23.904Z,5.47
2018-10-21T10:53:51.427Z,7.62
2018-10-21T10:56:21.265Z,4.95
2018-10-21T10:58:48.711Z,3.10
2018-10-21T11:01:16.222Z,4.65
2018-10-21T11:03:43.679Z,5.00
2018-10-21T11:06:11.965Z,5.10
2018-10-21T11:08:40.534Z,4.65
2018-10-21T11:11:07.980Z,3.87
2018-10-21T11:13:35.485Z,2.62
2018-10-21T11:16:03.154Z,5.30
2018-10-21T11:18:30.599Z,4.45
2018-10-21T11:20:58.078Z,2.60
2018-10-21T11:23:25.624Z,4.67
2018-10-21T11:25:53.062Z,3.02
2018-10-21T11:28:20.670Z,3.95
2018-10-21T11:30:48.091Z,5.72
2018-10-21T11:33:15.633Z,2.60
2018-10-21T11:35:43.079Z,6.67
2018-10-21T11:38:10.536Z,4.17
2018-10-21T11:40:38.039Z,6.05
2018-10-21T11:43:05.708Z,5.30
2018-10-21T11:45:33.414Z,2.08
2018-10-21T11:48:00.974Z,5.55
2018-10-21T11:50:28.544Z,2.83
2018-10-21T11:52:56.136Z,6.90
2018-10-21T11:55:23.664Z,5.37
2018-10-21T11:57:51.072Z,6.90
2018-10-21T12:00:33.421Z,4.45
2018-10-21T12:03:00.901Z,3.62
2018-10-21T12:05:28.475Z,6.75
2018-10-21T12:07:55.945Z,3.65
2018-10-21T12:10:23.425Z,1.20
2018-10-21T12:12:50.968Z,3.37
2018-10-21T12:15:18.447Z,3.00
2018-10-21T12:17:45.936Z,4.58
2018-10-21T12:20:13.494Z,3.92
2018-10-21T12:22:40.968Z,5.35
2018-10-21T12:25:08.618Z,3.12
2018-10-21T12:27:36.088Z,7.67
2018-10-21T12:30:04.741Z,3.08
2018-10-21T12:32:32.263Z,6.50
2018-10-21T12:35:01.153Z,2.58
2018-10-21T12:37:28.634Z,7.40
2018-10-21T12:39:56.187Z,5.95
2018-10-21T12:42:23.649Z,6.30
2018-10-21T12:44:51.167Z,4.17
2018-10-21T12:47:18.739Z,4.30
2018-10-21T12:49:46.301Z,4.58
2018-10-21T12:52:13.827Z,2.87
2018-10-21T12:54:41.411Z,3.20
2018-10-21T12:57:08.896Z,6.70
2018-10-21T12:59:36.414Z,4.47
2018-10-21T13:02:03.991Z,5.37
2018-10-21T13:04:32.061Z,9.38
2018-10-21T13:06:59.618Z,10.95
2018-10-21T13:09:27.053Z,3.50
2018-10-21T13:11:54.605Z,3.85
2018-10-21T13:14:22.186Z,4.58
2018-10-21T13:16:49.680Z,5.87
2018-10-21T13:19:17.230Z,3.33
2018-10-21T13:21:44.677Z,4.85
2018-10-21T13:24:12.213Z,3.55
2018-10-21T13:26:48.958Z,4.28
2018-10-21T13:29:16.900Z,7.85
2018-10-21T13:31:46.904Z,5.95
2018-10-21T13:34:15.052Z,5.17
2018-10-21T13:36:42.461Z,11.05
2018-10-21T13:39:12.268Z,3.80
2018-10-21T13:41:39.744Z,6.63
2018-10-21T13:44:07.407Z,5.03
2018-10-21T13:46:34.887Z,4.67
2018-10-21T13:49:02.834Z,4.28
2018-10-21T13:51:30.308Z,3.70
2018-10-21T13:53:57.787Z,7.17
2018-10-21T13:56:25.915Z,6.47
2018-10-21T13:58:53.385Z,6.53
2018-10-21T14:01:20.992Z,4.93
2018-10-21T14:03:48.940Z,8.00
2018-10-21T14:06:16.563Z,6.93
2018-10-21T14:08:44.044Z,5.57
2018-10-21T14:11:11.545Z,4.60
2018-10-21T14:13:39.038Z,5.07
2018-10-21T14:16:06.558Z,4.77
2018-10-21T14:18:44.565Z,3.30
2018-10-21T14:21:12.026Z,8.23
2018-10-21T14:23:39.516Z,7.87
2018-10-21T14:26:07.023Z,3.10
2018-10-21T14:28:34.569Z,4.57
2018-10-21T14:31:02.148Z,5.87
2018-10-21T14:33:29.716Z,3.97
2018-10-21T14:35:57.230Z,2.90
2018-10-21T14:38:26.128Z,5.07
2018-10-21T14:40:53.791Z,2.90
2018-10-21T14:43:21.395Z,4.00
2018-10-21T14:45:48.981Z,5.07
2018-10-21T14:48:16.677Z,2.93
2018-10-21T14:50:51.209Z,1.67
2018-10-21T14:53:18.697Z,3.73
2018-10-21T14:55:46.204Z,6.53
2018-10-21T14:58:13.900Z,6.97
2018-10-21T15:00:41.570Z,4.90
2018-10-21T15:03:12.400Z,3.27
2018-10-21T15:05:40.014Z,3.00
2018-10-21T15:08:11.838Z,2.23
2018-10-21T15:10:40.409Z,3.70
2018-10-21T15:13:08.109Z,1.60
2018-10-21T15:15:35.858Z,4.83
2018-10-21T15:18:03.453Z,33.57
2018-10-21T15:20:31.036Z,2.80
2018-10-21T15:22:58.691Z,3.63
2018-10-21T15:25:34.552Z,4.87
2018-10-21T15:28:03.322Z,4.13
2018-10-21T15:30:30.968Z,8.53
2018-10-21T15:32:58.688Z,4.57
2018-10-21T15:35:27.383Z,7.27
2018-10-21T15:37:55.909Z,4.37
2018-10-21T15:40:23.473Z,2.97
2018-10-21T15:42:51.317Z,4.23
2018-10-21T15:45:24.973Z,3.33
2018-10-21T15:47:52.675Z,3.97
2018-10-21T15:50:20.341Z,6.07
2018-10-21T15:52:47.708Z,4.03
2018-10-21T15:55:15.315Z,2.47
2018-10-21T15:57:50.589Z,6.57
2018-10-21T16:00:20.167Z,5.70
2018-10-21T16:02:48.698Z,3.10
2018-10-21T16:05:18.303Z,2.23
2018-10-21T16:07:45.891Z,1.87
2018-10-21T16:10:14.722Z,2.10
2018-10-21T16:12:43.314Z,1.70
2018-10-21T16:15:14.480Z,4.23
2018-10-21T16:17:42.478Z,7.10
2018-10-21T16:20:10.311Z,3.67
2018-10-21T16:22:39.256Z,5.30
2018-10-21T16:25:08.895Z,4.97
2018-10-21T16:27:37.522Z,10.40
2018-10-21T16:30:07.088Z,10.83
2018-10-21T16:32:34.599Z,7.83
2018-10-21T16:35:04.195Z,11.27
2018-10-21T16:37:34.373Z,14.13
2018-10-21T16:40:01.980Z,13.00
2018-10-21T16:42:30.554Z,10.07
2018-10-21T16:44:58.491Z,7.20
2018-10-21T16:47:27.006Z,5.17
2018-10-21T16:49:56.305Z,5.00
2018-10-21T16:52:23.871Z,5.47
2018-10-21T16:54:51.925Z,5.40
2018-10-21T16:57:22.916Z,6.17
2018-10-21T16:59:50.642Z,6.00
2018-10-21T17:02:18.172Z,8.03
2018-10-21T17:04:45.681Z,8.43
2018-10-21T17:07:13.366Z,7.00
2018-10-21T17:09:44.898Z,6.90
2018-10-21T17:12:12.267Z,7.83
2018-10-21T17:14:39.807Z,7.10
2018-10-21T17:17:07.446Z,7.30
2018-10-21T17:19:34.961Z,7.70
2018-10-21T17:22:02.468Z,17.47
2018-10-21T17:24:29.945Z,18.47
2018-10-21T17:26:57.371Z,11.53
2018-10-21T17:29:25.221Z,12.67
2018-10-21T17:31:52.762Z,9.37
2018-10-21T17:34:20.339Z,8.97
2018-10-21T17:36:47.889Z,4.47
2018-10-21T17:39:15.331Z,4.33
2018-10-21T17:41:43.588Z,13.33
2018-10-21T17:44:11.685Z,13.37
2018-10-21T17:46:39.184Z,8.50
2018-10-21T17:49:06.902Z,11.20
2018-10-21T17:51:34.300Z,9.63
2018-10-21T17:54:01.884Z,11.17
2018-10-21T17:56:29.595Z,5.33
2018-10-21T17:58:57.120Z,10.43
2018-10-21T18:01:25.537Z,11.30
2018-10-21T18:03:53.511Z,16.27
2018-10-21T18:06:21.969Z,16.37
2018-10-21T18:08:49.452Z,16.80
2018-10-21T18:11:16.940Z,15.30
2018-10-21T18:13:45.004Z,12.83
2018-10-21T18:16:12.594Z,10.43
2018-10-21T18:18:40.027Z,14.27
2018-10-21T18:21:07.636Z,11.10
2018-10-21T18:23:35.178Z,27.17
2018-10-21T18:26:02.789Z,10.57
2018-10-21T18:28:30.248Z,17.50
2018-10-21T18:30:57.696Z,10.77
2018-10-21T18:33:25.674Z,24.13
2018-10-21T18:35:53.894Z,26.33
2018-10-21T18:38:21.330Z,18.13
2018-10-21T18:40:48.935Z,17.30
2018-10-21T18:43:17.354Z,14.60
2018-10-21T18:45:45.018Z,18.10
2018-10-21T18:48:12.462Z,19.33
2018-10-21T18:50:39.969Z,17.90
2018-10-21T18:53:07.710Z,10.13
2018-10-21T18:55:35.827Z,12.77
2018-10-21T18:58:03.605Z,16.13
2018-10-21T19:00:31.076Z,22.00
2018-10-21T19:02:58.519Z,15.77
2018-10-21T19:05:25.995Z,10.57
2018-10-21T19:07:53.520Z,10.53
2018-10-21T19:10:21.022Z,12.33
2018-10-21T19:12:59.572Z,11.50
2018-10-21T19:15:15.984Z,7.70
2018-10-21T19:17:43.471Z,8.17
2018-10-21T19:20:15.118Z,7.23
2018-10-21T19:22:44.230Z,11.90
2018-10-21T19:25:13.575Z,13.80
2018-10-21T19:27:41.503Z,8.77
2018-10-21T19:30:10.255Z,9.67
2018-10-21T19:32:38.073Z,8.80
2018-10-21T19:35:06.603Z,15.27
2018-10-21T19:37:34.488Z,15.77
2018-10-21T19:40:02.344Z,12.50
2018-10-21T19:42:30.629Z,15.23
2018-10-21T19:44:58.160Z,10.20
2018-10-21T19:47:26.675Z,11.23
2018-10-21T19:49:54.215Z,14.70
2018-10-21T19:52:22.590Z,12.97
2018-10-21T19:54:51.604Z,19.90
2018-10-21T19:57:19.402Z,21.13
2018-10-21T19:59:51.211Z,19.10
2018-10-21T20:02:19.745Z,18.83
2018-10-21T20:04:47.824Z,19.77
2018-10-21T20:07:15.967Z,16.83
2018-10-21T20:09:43.598Z,14.83
2018-10-21T20:12:12.405Z,11.93
2018-10-21T20:14:41.148Z,13.40
2018-10-21T20:17:08.720Z,11.37
2018-10-21T20:19:36.378Z,14.67
2018-10-21T20:22:09.715Z,19.10
2018-10-21T20:24:37.292Z,19.40
2018-10-21T20:27:06.134Z,16.87
2018-10-21T20:29:36.314Z,15.90
2018-10-21T20:32:04.128Z,20.97
2018-10-21T20:34:33.149Z,30.83
2018-10-21T20:37:00.623Z,23.43
2018-10-21T20:39:28.243Z,17.70
2018-10-21T20:41:56.323Z,16.80
2018-10-21T20:44:28.323Z,13.37
2018-10-21T20:46:57.311Z,15.87
2018-10-21T20:49:24.864Z,10.57
2018-10-21T20:51:52.399Z,6.73
2018-10-21T20:54:19.935Z,7.23
2018-10-21T20:56:47.691Z,14.37
2018-10-21T20:59:15.219Z,14.93
2018-10-21T21:01:42.872Z,19.03
2018-10-21T21:04:10.488Z,12.30
2018-10-21T21:06:37.920Z,15.33
2018-10-21T21:09:07.632Z,17.57
2018-10-21T21:11:35.086Z,16.43
2018-10-21T21:14:02.747Z,17.33
2018-10-21T21:16:30.295Z,16.73
2018-10-21T21:18:57.775Z,21.97
2018-10-21T21:21:25.279Z,17.60
2018-10-21T21:23:53.072Z,18.00
2018-10-21T21:26:20.636Z,19.33
2018-10-21T21:28:50.922Z,12.13
2018-10-21T21:31:18.580Z,8.80
2018-10-21T21:33:46.161Z,13.10
2018-10-21T21:36:13.815Z,11.63
2018-10-21T21:38:41.384Z,13.87
2018-10-21T21:41:09.287Z,15.40
2018-10-21T21:43:36.763Z,7.20
2018-10-21T21:46:04.690Z,10.57
2018-10-21T21:48:32.143Z,7.20
2018-10-21T21:50:59.628Z,16.90
2018-10-21T21:53:27.206Z,9.30
2018-10-21T21:55:54.757Z,10.00
2018-10-21T21:58:22.327Z,9.80
2018-10-21T22:00:50.178Z,18.07
2018-10-21T22:03:18.091Z,19.60
2018-10-21T22:05:45.579Z,19.83
2018-10-21T22:08:13.255Z,16.07
2018-10-21T22:10:40.725Z,12.50
2018-10-21T22:13:08.356Z,10.63
2018-10-21T22:15:35.834Z,9.20
2018-10-21T22:18:03.422Z,8.93
2018-10-21T22:20:30.904Z,10.27
2018-10-21T22:22:58.443Z,10.97
2018-10-21T22:25:25.899Z,14.97
2018-10-21T22:27:53.423Z,16.93
2018-10-21T22:30:20.920Z,11.90
2018-10-21T22:32:48.408Z,10.63
2018-10-21T22:35:15.895Z,15.03
2018-10-21T22:37:43.355Z,9.70
2018-10-21T22:40:10.953Z,10.27
2018-10-21T22:42:38.374Z,10.93
2018-10-21T22:45:06.914Z,9.63
2018-10-21T22:47:34.432Z,8.60
2018-10-21T22:50:02.827Z,8.33
2018-10-21T22:52:30.590Z,7.90
2018-10-21T22:54:58.047Z,8.33
2018-10-21T22:57:25.487Z,13.77
2018-10-21T22:59:52.995Z,14.30
2018-10-21T23:02:20.641Z,7.13
2018-10-21T23:04:48.080Z,10.77
2018-10-21T23:07:15.592Z,6.80
2018-10-21T23:09:43.007Z,8.90
2018-10-21T23:12:10.507Z,9.97
2018-10-21T23:14:38.083Z,13.70
2018-10-21T23:17:05.605Z,12.80
2018-10-21T23:19:43.066Z,9.97
2018-10-21T23:22:10.547Z,12.47
2018-10-21T23:24:38.508Z,13.73
2018-10-21T23:27:06.326Z,9.97
2018-10-21T23:29:33.726Z,11.03
2018-10-21T23:32:01.178Z,12.73
2018-10-21T23:34:28.615Z,9.80
2018-10-21T23:36:56.698Z,11.00
2018-10-21T23:39:24.699Z,11.53
2018-10-21T23:41:52.227Z,11.50
2018-10-21T23:44:19.713Z,10.70
2018-10-21T23:46:47.383Z,9.60
2018-10-21T23:49:14.958Z,11.90
2018-10-21T23:51:42.448Z,13.93
2018-10-21T23:54:10.028Z,14.47
2018-10-21T23:56:37.603Z,10.70
2018-10-21T23:59:05.791Z,16.40
